createdAt,value
2019-02-11T00:01:18.410Z,8.86
2019-02-11T00:04:24.282Z,9.02
2019-02-11T00:07:30.068Z,9.05
2019-02-11T00:10:35.862Z,8.89
2019-02-11T00:13:41.635Z,8.88
2019-02-11T00:16:47.487Z,9.01
2019-02-11T00:19:53.269Z,8.93
2019-02-11T00:22:59.097Z,8.66
2019-02-11T00:26:04.855Z,8.69
2019-02-11T00:29:10.639Z,8.79
2019-02-11T00:32:16.423Z,7.94
2019-02-11T00:35:22.197Z,8.40
2019-02-11T00:38:28.002Z,8.62
2019-02-11T00:41:33.796Z,8.73
2019-02-11T00:44:39.582Z,8.79
2019-02-11T00:47:45.329Z,8.81
2019-02-11T00:50:51.135Z,8.72
2019-02-11T00:53:56.909Z,8.47
2019-02-11T00:57:02.685Z,8.67
2019-02-11T01:00:10.593Z,8.75
2019-02-11T01:03:16.372Z,8.77
2019-02-11T01:06:22.176Z,8.82
2019-02-11T01:09:27.925Z,8.78
2019-02-11T01:12:33.718Z,8.55
2019-02-11T01:15:39.480Z,8.40
2019-02-11T01:18:45.254Z,8.03
2019-02-11T01:21:51.012Z,8.21
2019-02-11T01:24:56.798Z,7.94
2019-02-11T01:28:02.555Z,8.20
2019-02-11T01:31:08.322Z,8.30
2019-02-11T01:34:14.059Z,8.53
2019-02-11T01:37:19.841Z,8.54
2019-02-11T01:40:25.598Z,8.49
2019-02-11T01:43:36.138Z,8.58
2019-02-11T01:46:38.789Z,8.45
2019-02-11T01:49:44.682Z,8.50
2019-02-11T01:52:50.444Z,8.41
2019-02-11T01:55:56.213Z,8.38
2019-02-11T01:59:01.976Z,8.24
2019-02-11T02:02:07.763Z,8.31
2019-02-11T02:05:13.599Z,8.37
2019-02-11T02:08:19.447Z,8.33
2019-02-11T02:11:25.202Z,8.12
2019-02-11T02:14:31.132Z,8.20
2019-02-11T02:17:36.904Z,8.17
2019-02-11T02:20:42.730Z,8.15
2019-02-11T02:23:48.492Z,8.27
2019-02-11T02:26:54.256Z,7.79
2019-02-11T02:30:00.035Z,8.15
2019-02-11T02:33:05.939Z,8.21
2019-02-11T02:36:11.730Z,7.34
2019-02-11T02:39:17.507Z,7.61
2019-02-11T02:42:23.273Z,7.55
2019-02-11T02:45:29.256Z,7.67
2019-02-11T02:48:35.009Z,7.85
2019-02-11T02:51:40.777Z,7.94
2019-02-11T02:54:46.861Z,8.10
2019-02-11T02:57:52.672Z,7.99
2019-02-11T03:00:58.450Z,7.91
2019-02-11T03:04:04.218Z,7.98
2019-02-11T03:07:09.979Z,7.97
2019-02-11T03:10:15.915Z,8.03
2019-02-11T03:13:21.649Z,8.11
2019-02-11T03:16:27.422Z,8.11
2019-02-11T03:19:33.179Z,7.99
2019-02-11T03:22:38.973Z,7.91
2019-02-11T03:25:44.727Z,7.73
2019-02-11T03:28:50.483Z,7.87
2019-02-11T03:31:59.736Z,7.65
2019-02-11T03:35:03.705Z,7.71
2019-02-11T03:38:09.461Z,7.48
2019-02-11T03:41:15.258Z,7.22
2019-02-11T03:44:21.049Z,7.76
2019-02-11T03:47:26.874Z,7.75
2019-02-11T03:50:32.637Z,7.69
2019-02-11T03:53:38.404Z,7.70
2019-02-11T03:56:44.357Z,7.91
2019-02-11T03:59:50.237Z,7.71
2019-02-11T04:02:56.309Z,7.68
2019-02-11T04:06:02.058Z,7.06
2019-02-11T04:09:08.412Z,7.10
2019-02-11T04:12:14.187Z,7.48
2019-02-11T04:15:19.971Z,6.90
2019-02-11T04:18:25.773Z,7.23
2019-02-11T04:21:31.542Z,7.45
2019-02-11T04:24:37.502Z,6.78
2019-02-11T04:27:43.255Z,7.19
2019-02-11T04:30:49.060Z,7.47
2019-02-11T04:33:54.881Z,7.54
2019-02-11T04:37:00.636Z,6.74
2019-02-11T04:40:07.325Z,7.08
2019-02-11T04:43:13.110Z,7.13
2019-02-11T04:46:18.879Z,6.95
2019-02-11T04:49:24.646Z,6.56
2019-02-11T04:52:30.406Z,6.88
2019-02-11T04:55:36.210Z,6.83
2019-02-11T04:58:41.964Z,6.71
2019-02-11T05:01:47.715Z,6.47
2019-02-11T05:04:53.483Z,6.67
2019-02-11T05:07:59.270Z,6.87
2019-02-11T05:11:05.145Z,6.93
2019-02-11T05:14:10.914Z,6.15
2019-02-11T05:17:16.683Z,6.26
2019-02-11T05:20:22.526Z,6.06
2019-02-11T05:23:28.284Z,5.96
2019-02-11T05:26:34.057Z,5.68
2019-02-11T05:29:39.821Z,5.38
2019-02-11T05:32:45.626Z,5.64
2019-02-11T05:35:51.377Z,5.03
2019-02-11T05:38:57.231Z,5.91
2019-02-11T05:42:02.995Z,5.95
2019-02-11T05:45:09.014Z,6.25
2019-02-11T05:48:14.771Z,5.77
2019-02-11T05:51:20.554Z,5.90
2019-02-11T05:54:26.319Z,5.53
2019-02-11T05:57:32.124Z,5.80
2019-02-11T06:00:37.890Z,5.65
2019-02-11T06:03:43.660Z,5.06
2019-02-11T06:06:49.442Z,5.75
2019-02-11T06:09:55.203Z,5.27
2019-02-11T06:13:00.955Z,5.16
2019-02-11T06:16:06.752Z,5.35
2019-02-11T06:19:12.479Z,5.70
2019-02-11T06:22:18.233Z,5.71
2019-02-11T06:25:23.994Z,6.13
2019-02-11T06:28:29.770Z,6.25
2019-02-11T06:31:35.645Z,6.02
2019-02-11T06:34:41.611Z,6.16
2019-02-11T06:37:47.382Z,6.82
2019-02-11T06:40:53.181Z,7.26
2019-02-11T06:43:58.938Z,7.29
2019-02-11T06:47:04.705Z,7.37
2019-02-11T06:50:11.456Z,7.79
2019-02-11T06:53:18.259Z,8.11
2019-02-11T06:56:24.044Z,7.93
2019-02-11T06:59:31.043Z,7.27
2019-02-11T07:02:36.804Z,7.59
2019-02-11T07:05:42.610Z,7.31
2019-02-11T07:08:48.381Z,7.58
2019-02-11T07:11:54.151Z,7.64
2019-02-11T07:14:59.910Z,8.29
2019-02-11T07:18:05.702Z,8.09
2019-02-11T07:21:11.478Z,8.05
2019-02-11T07:24:17.309Z,8.71
2019-02-11T07:27:23.222Z,8.82
2019-02-11T07:30:29.041Z,9.20
2019-02-11T07:33:34.936Z,9.74
2019-02-11T07:36:40.717Z,10.09
2019-02-11T07:39:46.508Z,10.36
2019-02-11T07:42:57.538Z,10.51
2019-02-11T07:46:31.515Z,10.31
2019-02-11T07:49:37.439Z,10.49
2019-02-11T07:52:43.309Z,10.53
2019-02-11T07:55:49.119Z,11.14
2019-02-11T07:58:54.906Z,11.57
2019-02-11T08:02:00.687Z,11.89
2019-02-11T08:05:07.039Z,12.30
2019-02-11T08:08:12.873Z,12.10
2019-02-11T08:11:18.770Z,11.78
2019-02-11T08:14:24.730Z,12.03
2019-02-11T08:17:30.647Z,11.73
2019-02-11T08:20:36.721Z,11.85
2019-02-11T08:23:42.562Z,11.95
2019-02-11T08:26:48.376Z,12.24
2019-02-11T08:29:55.161Z,12.47
2019-02-11T08:33:01.014Z,12.60
2019-02-11T08:36:06.803Z,12.63
2019-02-11T08:39:12.832Z,12.75
2019-02-11T08:42:18.609Z,12.41
2019-02-11T08:45:24.403Z,12.66
2019-02-11T08:48:30.205Z,12.56
2019-02-11T08:51:36.035Z,12.74
2019-02-11T08:54:41.847Z,12.59
2019-02-11T08:57:47.714Z,12.58
2019-02-11T09:00:53.615Z,12.45
2019-02-11T09:03:59.495Z,12.45
2019-02-11T09:07:05.361Z,12.49
2019-02-11T09:10:11.835Z,12.84
2019-02-11T09:13:18.728Z,13.11
2019-02-11T09:16:24.707Z,12.95
2019-02-11T09:19:30.531Z,12.61
2019-02-11T09:22:36.317Z,12.50
2019-02-11T09:25:42.149Z,12.46
2019-02-11T09:28:49.080Z,12.67
2019-02-11T09:31:54.861Z,12.80
2019-02-11T09:35:00.644Z,12.73
2019-02-11T09:38:06.590Z,12.84
2019-02-11T09:41:12.487Z,13.02
2019-02-11T09:44:18.420Z,13.01
2019-02-11T09:47:24.204Z,13.03
2019-02-11T09:50:39.859Z,12.96
2019-02-11T09:53:45.782Z,13.58
2019-02-11T09:56:51.670Z,13.59
2019-02-11T09:59:57.524Z,13.57
2019-02-11T10:03:03.585Z,12.93
2019-02-11T10:06:09.359Z,13.07
2019-02-11T10:09:15.250Z,13.82
2019-02-11T10:12:21.553Z,13.58
2019-02-11T10:15:27.495Z,13.08
2019-02-11T10:18:33.277Z,12.85
2019-02-11T10:21:39.160Z,12.90
2019-02-11T10:24:44.984Z,13.12
2019-02-11T10:27:50.756Z,14.04
2019-02-11T10:30:57.061Z,13.95
2019-02-11T10:34:03.878Z,13.74
2019-02-11T10:37:09.833Z,13.63
2019-02-11T10:40:15.974Z,13.53
2019-02-11T10:43:21.900Z,13.43
2019-02-11T10:46:27.866Z,13.31
2019-02-11T10:49:33.639Z,12.60
2019-02-11T10:52:40.426Z,12.60
2019-02-11T10:55:46.385Z,12.83
2019-02-11T10:58:52.238Z,13.16
2019-02-11T11:01:58.161Z,13.48
2019-02-11T11:05:04.115Z,13.88
2019-02-11T11:08:10.093Z,14.13
2019-02-11T11:11:16.007Z,14.82
2019-02-11T11:14:21.898Z,15.36
2019-02-11T11:17:27.823Z,15.95
2019-02-11T11:20:33.816Z,16.00
2019-02-11T11:23:39.604Z,15.74
2019-02-11T11:26:45.461Z,16.05
2019-02-11T11:29:51.242Z,16.05
2019-02-11T11:32:57.065Z,15.63
2019-02-11T11:36:02.873Z,15.55
2019-02-11T11:39:18.322Z,16.07
2019-02-11T11:42:24.173Z,16.14
2019-02-11T11:45:30.005Z,15.61
2019-02-11T11:48:36.099Z,15.62
2019-02-11T11:51:41.880Z,15.46
2019-02-11T11:54:47.678Z,15.33
2019-02-11T11:57:53.574Z,15.00
2019-02-11T12:00:59.533Z,14.41
2019-02-11T12:04:06.676Z,13.97
2019-02-11T12:07:12.821Z,14.13
2019-02-11T12:10:20.124Z,14.32
2019-02-11T12:13:27.792Z,14.25
2019-02-11T12:16:34.697Z,14.08
2019-02-11T12:19:40.491Z,14.05
2019-02-11T12:22:46.812Z,13.53
2019-02-11T12:25:52.636Z,13.58
2019-02-11T12:28:58.437Z,13.21
2019-02-11T12:32:05.828Z,13.21
2019-02-11T12:35:12.607Z,13.14
2019-02-11T12:38:18.435Z,12.98
2019-02-11T12:41:24.334Z,12.81
2019-02-11T12:44:30.183Z,12.72
2019-02-11T12:47:35.970Z,12.75
2019-02-11T12:50:41.889Z,12.60
2019-02-11T12:53:48.076Z,12.31
2019-02-11T12:56:53.854Z,12.69
2019-02-11T12:59:59.656Z,12.76
2019-02-11T13:03:06.010Z,12.59
2019-02-11T13:06:11.832Z,12.64
2019-02-11T13:09:17.698Z,12.39
2019-02-11T13:12:23.563Z,12.15
2019-02-11T13:15:56.368Z,12.10
2019-02-11T13:18:39.400Z,12.18
2019-02-11T13:21:44.632Z,12.02
2019-02-11T13:24:50.404Z,11.97
2019-02-11T13:27:56.215Z,12.27
2019-02-11T13:31:02.217Z,12.34
2019-02-11T13:34:08.064Z,12.61
2019-02-11T13:37:13.977Z,12.38
2019-02-11T13:40:19.891Z,11.97
2019-02-11T13:43:25.763Z,12.12
2019-02-11T13:46:31.565Z,12.48
2019-02-11T13:49:37.346Z,12.42
2019-02-11T13:52:43.211Z,12.44
2019-02-11T13:55:49.287Z,12.45
2019-02-11T13:58:55.287Z,12.48
2019-02-11T14:02:01.136Z,12.52
2019-02-11T14:05:07.518Z,12.44
2019-02-11T14:08:13.795Z,12.50
2019-02-11T14:11:19.577Z,12.50
2019-02-11T14:14:31.796Z,12.54
2019-02-11T14:17:37.709Z,12.48
2019-02-11T14:20:44.048Z,12.48
2019-02-11T14:23:50.039Z,12.46
2019-02-11T14:26:55.817Z,12.58
2019-02-11T14:30:01.623Z,12.46
2019-02-11T14:33:08.260Z,12.51
2019-02-11T14:36:14.337Z,12.45
2019-02-11T14:39:20.389Z,12.55
2019-02-11T14:42:26.321Z,12.40
2019-02-11T14:45:32.230Z,12.44
2019-02-11T14:48:38.143Z,12.44
2019-02-11T14:51:44.986Z,11.79
2019-02-11T14:54:50.890Z,11.92
2019-02-11T14:57:56.718Z,12.43
2019-02-11T15:01:02.507Z,12.53
2019-02-11T15:04:08.316Z,12.43
2019-02-11T15:07:14.046Z,12.39
2019-02-11T15:10:19.979Z,12.37
2019-02-11T15:13:25.742Z,12.36
2019-02-11T15:16:31.637Z,12.18
2019-02-11T15:19:37.409Z,12.20
2019-02-11T15:22:43.219Z,12.34
2019-02-11T15:25:48.985Z,12.41
2019-02-11T15:28:54.893Z,12.27
2019-02-11T15:32:00.667Z,12.25
2019-02-11T15:35:06.575Z,12.22
2019-02-11T15:38:12.368Z,12.23
2019-02-11T15:41:18.143Z,12.19
2019-02-11T15:44:23.900Z,11.99
2019-02-11T15:47:29.685Z,11.87
2019-02-11T15:50:35.688Z,11.70
2019-02-11T15:53:41.600Z,11.60
2019-02-11T15:56:47.419Z,11.73
2019-02-11T15:59:53.174Z,11.65
2019-02-11T16:02:58.940Z,11.58
2019-02-11T16:06:10.215Z,11.62
2019-02-11T16:09:12.454Z,11.64
2019-02-11T16:12:18.256Z,11.54
2019-02-11T16:15:24.126Z,11.56
2019-02-11T16:18:30.000Z,11.45
2019-02-11T16:21:35.773Z,11.31
2019-02-11T16:24:41.646Z,11.28
2019-02-11T16:27:47.555Z,11.30
2019-02-11T16:30:53.325Z,11.05
2019-02-11T16:33:59.143Z,10.77
2019-02-11T16:37:05.020Z,10.92
2019-02-11T16:40:13.604Z,10.92
2019-02-11T16:43:20.417Z,10.68
2019-02-11T16:46:26.194Z,10.53
2019-02-11T16:49:31.984Z,10.27
2019-02-11T16:52:37.882Z,10.59
2019-02-11T16:55:43.775Z,10.58
2019-02-11T16:58:49.662Z,10.82
2019-02-11T17:01:55.459Z,10.49
2019-02-11T17:05:01.241Z,10.64
2019-02-11T17:08:07.090Z,10.71
2019-02-11T17:11:12.862Z,10.82
2019-02-11T17:14:20.324Z,10.84
2019-02-11T17:17:26.119Z,10.91
2019-02-11T17:20:31.915Z,9.93
2019-02-11T17:23:37.823Z,9.68
2019-02-11T17:26:43.693Z,9.52
2019-02-11T17:29:49.644Z,9.72
2019-02-11T17:32:55.568Z,9.84
2019-02-11T17:36:01.371Z,10.12
2019-02-11T17:39:08.875Z,10.36
2019-02-11T17:42:14.898Z,10.29
2019-02-11T17:45:23.013Z,10.37
2019-02-11T17:48:28.904Z,10.50
2019-02-11T17:51:34.814Z,10.26
2019-02-11T17:54:40.647Z,10.35
2019-02-11T17:57:46.619Z,10.37
2019-02-11T18:00:56.205Z,10.22
2019-02-11T18:04:01.976Z,10.40
2019-02-11T18:07:08.331Z,10.20
2019-02-11T18:10:14.225Z,10.25
2019-02-11T18:13:20.004Z,10.23
2019-02-11T18:16:25.945Z,10.37
2019-02-11T18:19:31.759Z,10.21
2019-02-11T18:22:37.691Z,9.88
2019-02-11T18:25:43.525Z,10.01
2019-02-11T18:28:49.408Z,9.95
2019-02-11T18:31:55.228Z,10.09
2019-02-11T18:35:01.080Z,10.24
2019-02-11T18:38:06.926Z,10.39
2019-02-11T18:41:12.712Z,10.13
2019-02-11T18:44:18.697Z,10.32
2019-02-11T18:47:24.553Z,10.42
2019-02-11T18:50:30.430Z,10.47
2019-02-11T18:53:36.260Z,10.09
2019-02-11T18:56:42.156Z,10.21
2019-02-11T18:59:47.949Z,10.27
2019-02-11T19:02:54.127Z,10.57
2019-02-11T19:06:00.046Z,10.33
2019-02-11T19:09:08.732Z,10.46
2019-02-11T19:12:14.887Z,10.36
2019-02-11T19:15:20.861Z,10.51
2019-02-11T19:18:26.711Z,10.40
2019-02-11T19:21:33.458Z,10.31
2019-02-11T19:24:39.296Z,10.40
2019-02-11T19:27:45.076Z,10.43
2019-02-11T19:30:50.954Z,10.58
2019-02-11T19:33:56.813Z,10.11
2019-02-11T19:37:02.627Z,10.09
2019-02-11T19:40:10.225Z,10.11
2019-02-11T19:43:16.055Z,10.22
2019-02-11T19:46:22.221Z,10.20
2019-02-11T19:49:28.057Z,10.17
2019-02-11T19:52:33.952Z,10.12
2019-02-11T19:55:39.830Z,10.04
2019-02-11T19:58:45.709Z,10.18
2019-02-11T20:01:51.483Z,9.77
2019-02-11T20:04:57.284Z,9.72
2019-02-11T20:08:03.063Z,9.73
2019-02-11T20:11:08.936Z,9.81
2019-02-11T20:14:14.769Z,9.50
2019-02-11T20:17:20.523Z,9.83
2019-02-11T20:20:26.428Z,9.57
2019-02-11T20:23:32.177Z,9.36
2019-02-11T20:26:37.936Z,9.72
2019-02-11T20:29:43.700Z,9.70
2019-02-11T20:32:49.611Z,9.57
2019-02-11T20:35:55.431Z,9.90
2019-02-11T20:39:01.208Z,9.27
2019-02-11T20:42:08.615Z,9.55
2019-02-11T20:45:17.169Z,9.87
2019-02-11T20:48:22.978Z,9.81
2019-02-11T20:51:28.779Z,9.81
2019-02-11T20:54:34.569Z,9.67
2019-02-11T20:57:40.495Z,9.45
2019-02-11T21:00:46.363Z,9.78
2019-02-11T21:03:52.144Z,9.50
2019-02-11T21:06:57.918Z,9.68
2019-02-11T21:10:03.949Z,9.89
2019-02-11T21:13:09.825Z,9.98
2019-02-11T21:16:15.612Z,9.69
2019-02-11T21:19:21.391Z,9.65
2019-02-11T21:22:27.556Z,9.68
2019-02-11T21:25:33.431Z,9.90
2019-02-11T21:28:39.223Z,9.98
2019-02-11T21:31:45.146Z,9.71
2019-02-11T21:34:50.924Z,9.52
2019-02-11T21:37:56.709Z,9.77
2019-02-11T21:41:03.522Z,9.99
2019-02-11T21:44:09.306Z,9.23
2019-02-11T21:47:15.107Z,9.49
2019-02-11T21:50:26.276Z,9.36
2019-02-11T21:53:28.654Z,9.55
2019-02-11T21:56:34.409Z,8.87
2019-02-11T21:59:40.304Z,9.02
2019-02-11T22:02:46.132Z,9.30
2019-02-11T22:05:51.889Z,9.26
2019-02-11T22:08:57.735Z,9.65
2019-02-11T22:12:03.514Z,9.85
2019-02-11T22:15:10.041Z,9.51
2019-02-11T22:18:15.820Z,9.21
2019-02-11T22:21:21.639Z,9.25
2019-02-11T22:24:27.431Z,9.30
2019-02-11T22:27:33.300Z,9.54
2019-02-11T22:30:40.096Z,8.55
2019-02-11T22:33:45.852Z,8.73
2019-02-11T22:36:51.640Z,9.20
2019-02-11T22:39:57.515Z,9.12
2019-02-11T22:43:03.350Z,9.30
2019-02-11T22:46:09.134Z,9.49
2019-02-11T22:49:14.928Z,9.61
2019-02-11T22:52:20.689Z,9.07
2019-02-11T22:55:26.483Z,9.61
2019-02-11T22:58:33.236Z,9.38
2019-02-11T23:01:39.121Z,9.67
2019-02-11T23:04:44.899Z,9.13
2019-02-11T23:07:50.661Z,9.07
2019-02-11T23:10:56.417Z,9.14
2019-02-11T23:14:02.248Z,9.21
2019-02-11T23:17:08.002Z,9.27
2019-02-11T23:20:14.011Z,8.96
2019-02-11T23:23:19.781Z,8.89
2019-02-11T23:26:25.613Z,8.65
2019-02-11T23:29:31.378Z,8.91
2019-02-11T23:32:37.149Z,8.84
2019-02-11T23:35:43.036Z,8.68
2019-02-11T23:38:48.811Z,8.32
2019-02-11T23:41:54.569Z,8.60
2019-02-11T23:45:00.353Z,8.63
2019-02-11T23:48:06.243Z,7.91
2019-02-11T23:51:12.036Z,8.21
2019-02-11T23:54:17.812Z,8.34
2019-02-11T23:57:23.646Z,8.14
